Elmdale, KS

7:11 AM CDT on September 17, 2014 (GMT -0500)
RAWS TALLGRASS PRAIRIE KS US | Change Station
CLOSE
Current Station
Personal Weather Station
Location: Strong City, KS
Elevation: 1230 ft
Nearby Weather Stations

Elev 1230 ft 38.44 °N, 96.56 °W | Updated 41 minutes ago

Partly Cloudy
Partly Cloudy
65 °F
Feels Like 65 °F
N
6
Wind Variable Wind from SSW
Gusts 10.0 mph

Today
High -- | Low -- °F
--% Chance of Precip.
Yesterday
High -- | Low -- °F
Precip. -- in
7:10 AM 7:31 PM
Last Quarter, 36% visible
Pressure 29.86 in
Visibility 5.0 miles
Clouds Scattered Clouds 8000 ft
Dew Point 64 °F
Humidity 97%
Rainfall 0.00 in
Snow Depth Not available.
UV 0 out of 12
Pollen 4.90 out of 12
Air Quality Not available.
Flu Activity Not available.
METAR KEMP 171153Z AUTO 21005KT 5SM BR SCT080 18/18 A2988 RMK AO2 SLP112 60000 T01830178 10183 20172 56009

More Conditions Fewer Conditions

Pressure 29.86 in
Visibility 5.0 miles
Clouds Scattered Clouds 8000 ft
Dew Point 64 °F
Humidity 97%
Rainfall 0.00 in
Snow Depth Not available.
UV 0 out of 12
Pollen 4.90 out of 12
Air Quality Not available.
Flu Activity Not available.
METAR KEMP 171153Z AUTO 21005KT 5SM BR SCT080 18/18 A2988 RMK AO2 SLP112 60000 T01830178 10183 20172 56009

More Conditions Fewer Conditions

10-Day Weather Forecast

Almanac

Astronomy

Sep. 17, 2014 Rise Set
Actual Time 7:10 AM CDT 7:31 PM CDT
Civil Twilight 6:43 AM CDT 7:58 PM CDT
Nautical Twilight 6:12 AM CDT 8:29 PM CDT
Astronomical Twilight 5:40 AM CDT 9:00 PM CDT
Moon 1:14 AM CDT 3:39 PM CDT
Length of Visible Light 13h 14m
Length of Day
12h 21m
Tomorrow will be 2m 28s shorter.
Last Quarter, 36% of the Moon is Illuminated
Today
Last Quarter
Sep 24
New
Oct 1
First Quarter
Oct 8
Full
Oct 15
Last Quarter

Today's Extremes

State Highs State Lows

Community

WunderPhotos

Upload Photos

1,754,008 photos uploaded!

Nearby

Snow Depth

Station Depth Elevation
No new snow has been reported.

Earthquake Activity

City Distance Mag. Time & Date
Medford, Oklahoma 123 miles 3.2 6:09 AM CDT
2014-09-17
Medford, Oklahoma 122 miles 3.3 5:35 PM CDT
2014-09-16
Cherokee, Oklahoma 135 miles 2.6 2:21 PM CDT
2014-09-16
Medford, Oklahoma 121 miles 2.6 3:18 AM CDT
2014-09-16
Minimum magnitude displayed is 2.5.

Coastal Water Temperatures

Place Temperature
No Stations Reporting

Nearby Weather Stations